Muse, Oklahoma
Current Conditions -  °F | °C
As of 6:15 PM on Tuesday 25 Nov 2014 (Local Time) from KRKR Reporting Station
Clear Clear  
Wind Chill: 44°   Ceiling: Unl
Heat Index: 44°   Visibility: 10mi
Dew Point: 24°   Wind: 0mph
Humidity: 45%   Direction: NA
Pressure: 30.17"   Gusts: NA
Location:  34.67°N, 94.76°W
Report Text: KRKR 260015Z AUTO 00000KT 10SM CLR 07/M04 A3017 RMK AO2 T00661045
Loading
Personal Weather Stations






























Interactive Weather Map New forecast layout! Learn more

10-Day Weather Forecast

Advertisements
Track Severe Weather on mobile